CYQV

Yorkton Municipal Airport

Yorkton, Saskatchewan, Canada
METAR CYQV 150600Z AUTO 19013G19KT 9SM CLR 00/M05 A2964 RMK SLP066
Observed Flight Rules
Dec-15 @ 06:00 UTC (49 minutes ago) Visual Flight Rules
Wind Visibility Clouds
190° at 13 knots
 Gusting to 19 knots
9 miles
  • Clear skies
Temperatures Readings
Current 0°C / 32°F
Dewpoint -5°C / 23°F
Humidity 69%
Altimeter 29.64" Hg
Pressure 1006.6 hPa
Elevation 498
METAR CYQV 150600Z AUTO 19013G19KT 9SM CLR 00/M05 A2964 RMK SLP066
Observed Flight Rules
Dec-15 @ 06:00 UTC
(49 minutes ago)
VFR
Wind Visibility
190° at 13 knots
 Gusting to 19 knots
9 miles
Clouds
  • Clear skies
Temperature Dewpoint
0°C / 32°F -5°C / 23°F
Humidity Altimeter Pressure
69% 29.64" Hg 1006.6 hPa